createdAt,value
2023-04-19T00:01:25.485Z,70.70
2023-04-19T00:04:27.970Z,70.80
2023-04-19T00:07:30.251Z,70.80
2023-04-19T00:10:32.561Z,70.90
2023-04-19T00:13:34.996Z,71.00
2023-04-19T00:16:37.655Z,70.90
2023-04-19T00:19:40.029Z,71.00
2023-04-19T00:22:42.341Z,71.00
2023-04-19T00:25:46.430Z,71.00
2023-04-19T00:28:48.737Z,71.10
2023-04-19T00:31:51.257Z,71.20
2023-04-19T00:34:53.621Z,71.20
2023-04-19T00:37:57.410Z,71.30
2023-04-19T00:41:00.192Z,71.30
2023-04-19T00:44:02.387Z,71.20
2023-04-19T00:47:05.066Z,71.20
2023-04-19T00:50:08.086Z,71.40
2023-04-19T00:53:11.060Z,71.40
2023-04-19T00:56:15.062Z,71.40
2023-04-19T00:59:18.437Z,71.70
2023-04-19T01:02:22.413Z,71.50
2023-04-19T01:05:25.408Z,71.50
2023-04-19T01:08:27.693Z,71.70
2023-04-19T01:11:30.075Z,72.50
2023-04-19T01:14:32.401Z,71.80
2023-04-19T01:17:35.241Z,71.90
2023-04-19T01:20:40.603Z,71.90
2023-04-19T01:23:42.891Z,72.00
2023-04-19T01:26:45.208Z,72.00
2023-04-19T01:29:47.504Z,71.90
2023-04-19T01:32:49.977Z,72.20
2023-04-19T01:35:52.305Z,72.30
2023-04-19T01:38:54.536Z,72.50
2023-04-19T01:41:56.921Z,72.50
2023-04-19T01:44:59.310Z,72.60
2023-04-19T01:48:04.771Z,72.80
2023-04-19T01:51:09.671Z,72.60
2023-04-19T01:54:11.997Z,72.60
2023-04-19T01:57:16.677Z,72.70
2023-04-19T02:00:19.509Z,72.60
2023-04-19T02:03:22.995Z,72.80
2023-04-19T02:06:26.913Z,72.90
2023-04-19T02:09:29.300Z,73.00
2023-04-19T02:12:31.996Z,73.10
2023-04-19T02:15:34.421Z,73.80
2023-04-19T02:18:40.831Z,73.20
2023-04-19T02:21:43.077Z,73.30
2023-04-19T02:24:46.165Z,73.50
2023-04-19T02:27:48.489Z,73.70
2023-04-19T02:30:53.048Z,73.80
2023-04-19T02:33:55.334Z,73.80
2023-04-19T02:36:57.648Z,73.90
2023-04-19T02:39:59.814Z,73.90
2023-04-19T02:43:05.071Z,73.80
2023-04-19T02:46:07.462Z,74.00
2023-04-19T02:49:10.147Z,74.90
2023-04-19T02:52:12.290Z,74.30
2023-04-19T02:55:16.516Z,74.20
2023-04-19T02:58:20.546Z,74.30
2023-04-19T03:01:37.223Z,74.30
2023-04-19T03:04:41.722Z,74.30
2023-04-19T03:07:44.723Z,74.30
2023-04-19T03:10:47.646Z,74.40
2023-04-19T03:13:49.855Z,74.40
2023-04-19T03:16:52.143Z,74.70
2023-04-19T03:19:54.483Z,74.80
2023-04-19T03:22:57.065Z,74.70
2023-04-19T03:26:00.286Z,74.80
2023-04-19T03:29:14.656Z,74.90
2023-04-19T03:32:35.208Z,74.90
2023-04-19T03:35:38.394Z,74.80
2023-04-19T03:38:46.198Z,74.90
2023-04-19T03:41:52.954Z,75.00
2023-04-19T03:45:21.532Z,74.90
2023-04-19T03:48:23.925Z,75.10
2023-04-19T03:51:27.504Z,75.90
2023-04-19T03:54:29.786Z,75.10
2023-04-19T03:57:32.825Z,75.10
2023-04-19T04:00:38.117Z,75.00
2023-04-19T04:03:40.561Z,75.10
2023-04-19T04:06:43.206Z,75.10
2023-04-19T04:09:47.533Z,75.10
2023-04-19T04:12:49.781Z,75.00
2023-04-19T04:15:59.032Z,74.90
2023-04-19T04:19:01.460Z,75.00
2023-04-19T04:22:06.976Z,75.10
2023-04-19T04:25:13.640Z,75.00
2023-04-19T04:28:16.655Z,75.00
2023-04-19T04:31:19.784Z,75.10
2023-04-19T04:34:23.077Z,75.10
2023-04-19T04:37:35.837Z,75.10
2023-04-19T04:40:38.364Z,75.20
2023-04-19T04:43:40.610Z,75.10
2023-04-19T04:46:43.223Z,75.30
2023-04-19T04:49:48.390Z,75.00
2023-04-19T04:52:50.683Z,75.00
2023-04-19T04:55:58.359Z,75.10
2023-04-19T04:59:00.919Z,75.00
2023-04-19T05:02:08.466Z,75.10
2023-04-19T05:05:13.722Z,75.00
2023-04-19T05:08:16.079Z,75.10
2023-04-19T05:11:19.110Z,75.10
2023-04-19T05:14:21.912Z,75.10
2023-04-19T05:17:24.650Z,75.10
2023-04-19T05:20:27.640Z,75.20
2023-04-19T05:23:40.743Z,75.20
2023-04-19T05:26:43.180Z,75.20
2023-04-19T05:29:46.918Z,75.20
2023-04-19T05:32:52.912Z,75.20
2023-04-19T05:35:55.323Z,75.30
2023-04-19T05:38:57.562Z,75.20
2023-04-19T05:42:00.549Z,75.30
2023-04-19T05:45:05.412Z,75.40
2023-04-19T05:48:08.546Z,75.40
2023-04-19T05:51:32.055Z,75.40
2023-04-19T05:54:50.799Z,75.20
2023-04-19T05:57:53.014Z,75.10
2023-04-19T06:00:59.324Z,75.10
2023-04-19T06:04:02.051Z,75.20
2023-04-19T06:07:08.136Z,75.20
2023-04-19T06:10:16.221Z,75.10
2023-04-19T06:13:18.535Z,75.20
2023-04-19T06:16:21.101Z,75.30
2023-04-19T06:19:23.805Z,75.20
2023-04-19T06:22:26.161Z,75.20
2023-04-19T06:25:28.487Z,75.20
2023-04-19T06:28:30.784Z,75.20
2023-04-19T06:31:34.096Z,75.10
2023-04-19T06:34:36.380Z,75.10
2023-04-19T06:37:38.633Z,75.00
2023-04-19T06:40:40.939Z,75.00
2023-04-19T06:43:45.054Z,74.90
2023-04-19T06:46:47.519Z,74.90
2023-04-19T06:49:49.772Z,74.80
2023-04-19T06:52:51.995Z,74.80
2023-04-19T06:56:02.931Z,74.70
2023-04-19T06:59:05.264Z,74.70
2023-04-19T07:02:07.660Z,74.70
2023-04-19T07:05:10.088Z,74.60
2023-04-19T07:08:12.403Z,74.70
2023-04-19T07:11:14.749Z,74.60
2023-04-19T07:14:17.423Z,74.60
2023-04-19T07:17:20.004Z,74.50
2023-04-19T07:20:22.586Z,74.50
2023-04-19T07:23:24.829Z,74.50
2023-04-19T07:26:27.387Z,74.60
2023-04-19T07:29:30.008Z,74.50
2023-04-19T07:32:32.353Z,74.40
2023-04-19T07:35:36.095Z,74.30
2023-04-19T07:38:38.594Z,74.30
2023-04-19T07:41:40.790Z,74.30
2023-04-19T07:44:43.062Z,74.20
2023-04-19T07:47:45.645Z,74.10
2023-04-19T07:50:47.975Z,74.10
2023-04-19T07:53:50.614Z,74.00
2023-04-19T07:56:52.846Z,73.90
2023-04-19T07:59:58.209Z,73.90
2023-04-19T08:03:00.912Z,73.90
2023-04-19T08:06:05.429Z,73.90
2023-04-19T08:09:08.076Z,73.80
2023-04-19T08:12:14.836Z,73.80
2023-04-19T08:18:31.888Z,73.70
2023-04-19T08:21:40.673Z,73.50
2023-04-19T08:24:44.493Z,73.50
2023-04-19T08:27:46.720Z,73.40
2023-04-19T08:30:49.519Z,73.40
2023-04-19T08:33:51.823Z,73.30
2023-04-19T08:37:03.307Z,73.20
2023-04-19T08:40:07.323Z,73.20
2023-04-19T08:43:09.564Z,73.00
2023-04-19T08:46:12.858Z,72.90
2023-04-19T08:49:16.058Z,72.80
2023-04-19T08:52:19.089Z,72.70
2023-04-19T08:55:21.513Z,72.60
2023-04-19T08:58:33.273Z,72.60
2023-04-19T09:01:44.625Z,72.60
2023-04-19T09:04:47.519Z,72.60
2023-04-19T09:07:50.614Z,72.50
2023-04-19T09:11:01.881Z,72.50
2023-04-19T09:14:12.140Z,72.50
2023-04-19T09:17:17.375Z,72.30
2023-04-19T09:20:39.788Z,72.30
2023-04-19T09:23:48.546Z,72.10
2023-04-19T09:26:58.012Z,72.10
2023-04-19T09:30:02.176Z,72.00
2023-04-19T09:33:05.014Z,71.90
2023-04-19T09:36:08.508Z,71.80
2023-04-19T09:39:11.445Z,71.70
2023-04-19T09:42:15.700Z,71.60
2023-04-19T09:48:23.705Z,71.60
2023-04-19T09:51:41.338Z,71.70
2023-04-19T09:54:44.412Z,71.60
2023-04-19T09:57:46.586Z,71.60
2023-04-19T10:00:54.933Z,71.60
2023-04-19T10:04:20.563Z,71.40
2023-04-19T10:07:31.877Z,71.40
2023-04-19T10:10:41.867Z,71.20
2023-04-19T10:13:47.601Z,71.20
2023-04-19T10:16:50.486Z,71.20
2023-04-19T10:20:07.179Z,71.30
2023-04-19T10:23:10.057Z,71.10
2023-04-19T10:26:12.345Z,71.00
2023-04-19T10:29:14.824Z,71.10
2023-04-19T10:32:17.417Z,71.10
2023-04-19T10:35:22.053Z,70.90
2023-04-19T10:38:55.787Z,70.90
2023-04-19T10:41:59.707Z,70.90
2023-04-19T10:45:32.356Z,70.70
2023-04-19T10:48:38.369Z,70.80
2023-04-19T10:51:44.548Z,70.60
2023-04-19T10:54:57.194Z,70.70
2023-04-19T10:58:06.814Z,70.60
2023-04-19T11:01:41.036Z,70.40
2023-04-19T11:04:49.263Z,70.50
2023-04-19T11:07:51.822Z,70.30
2023-04-19T11:10:57.264Z,70.20
2023-04-19T11:14:02.733Z,70.30
2023-04-19T11:17:16.740Z,70.40
2023-04-19T11:20:23.975Z,70.20
2023-04-19T11:23:26.462Z,70.20
2023-04-19T11:26:28.831Z,70.10
2023-04-19T11:29:31.402Z,70.20
2023-04-19T11:32:34.065Z,70.00
2023-04-19T11:35:36.692Z,70.00
2023-04-19T11:38:39.378Z,69.80
2023-04-19T11:41:41.687Z,70.60
2023-04-19T11:44:52.454Z,69.80
2023-04-19T11:47:55.147Z,69.80
2023-04-19T11:50:59.091Z,69.70
2023-04-19T11:54:01.554Z,69.70
2023-04-19T11:57:08.651Z,69.60
2023-04-19T12:00:12.420Z,69.60
2023-04-19T12:03:15.146Z,69.60
2023-04-19T12:06:22.423Z,69.50
2023-04-19T12:09:25.067Z,69.50
2023-04-19T12:12:33.647Z,69.50
2023-04-19T12:15:46.484Z,69.40
2023-04-19T12:18:51.854Z,69.50
2023-04-19T12:21:54.162Z,69.40
2023-04-19T12:24:57.285Z,69.20
2023-04-19T12:28:01.421Z,69.20
2023-04-19T12:31:04.006Z,69.20
2023-04-19T12:34:06.219Z,69.20
2023-04-19T12:37:08.411Z,69.20
2023-04-19T12:40:11.492Z,69.00
2023-04-19T12:43:13.769Z,68.90
2023-04-19T12:46:19.064Z,68.90
2023-04-19T12:49:21.417Z,68.90
2023-04-19T12:52:24.032Z,68.90
2023-04-19T12:55:26.471Z,68.90
2023-04-19T12:58:28.760Z,68.90
2023-04-19T13:01:33.008Z,68.90
2023-04-19T13:04:36.472Z,68.90
2023-04-19T13:07:39.010Z,68.90
2023-04-19T13:10:41.221Z,68.90
2023-04-19T13:13:43.728Z,68.80
2023-04-19T13:16:46.154Z,68.80
2023-04-19T13:19:48.567Z,68.70
2023-04-19T13:22:50.903Z,68.80
2023-04-19T13:25:53.122Z,68.80
2023-04-19T13:28:55.462Z,68.60
2023-04-19T13:31:57.707Z,68.70
2023-04-19T13:34:59.934Z,68.70
2023-04-19T13:38:02.292Z,68.60
2023-04-19T13:41:05.168Z,68.60
2023-04-19T13:44:07.541Z,68.50
2023-04-19T13:47:09.877Z,68.40
2023-04-19T13:50:13.277Z,68.60
2023-04-19T13:53:15.748Z,68.40
2023-04-19T13:56:17.989Z,68.40
2023-04-19T13:59:21.155Z,68.40
2023-04-19T14:02:23.535Z,68.40
2023-04-19T14:05:26.245Z,68.50
2023-04-19T14:08:28.618Z,68.50
2023-04-19T14:11:31.417Z,68.40
2023-04-19T14:14:33.739Z,68.40
2023-04-19T14:17:36.204Z,68.30
2023-04-19T14:20:38.719Z,68.40
2023-04-19T14:23:41.029Z,68.20
2023-04-19T14:26:43.769Z,68.20
2023-04-19T14:29:46.106Z,68.20
2023-04-19T14:32:48.737Z,68.00
2023-04-19T14:35:51.292Z,67.90
2023-04-19T14:38:53.544Z,68.00
2023-04-19T14:41:57.575Z,68.10
2023-04-19T14:44:59.880Z,68.00
2023-04-19T14:48:03.029Z,68.00
2023-04-19T14:51:05.460Z,67.90
2023-04-19T14:54:07.925Z,68.00
2023-04-19T14:57:10.235Z,68.00
2023-04-19T15:00:13.209Z,68.20
2023-04-19T15:03:16.281Z,68.10
2023-04-19T15:06:18.711Z,68.00
2023-04-19T15:09:21.198Z,68.00
2023-04-19T15:12:23.466Z,68.00
2023-04-19T15:15:25.791Z,68.00
2023-04-19T15:18:28.372Z,67.90
2023-04-19T15:21:30.734Z,67.80
2023-04-19T15:24:35.508Z,67.90
2023-04-19T15:27:37.799Z,68.00
2023-04-19T15:30:39.989Z,67.80
2023-04-19T15:33:42.219Z,67.90
2023-04-19T15:36:44.413Z,67.80
2023-04-19T15:39:49.722Z,67.80
2023-04-19T15:42:52.060Z,67.80
2023-04-19T15:45:54.373Z,67.80
2023-04-19T15:48:56.698Z,67.80
2023-04-19T15:51:58.916Z,67.80
2023-04-19T15:55:01.184Z,67.80
2023-04-19T15:58:05.424Z,67.90
2023-04-19T16:01:14.484Z,67.80
2023-04-19T16:04:17.898Z,68.00
2023-04-19T16:07:20.416Z,68.00
2023-04-19T16:10:22.705Z,68.20
2023-04-19T16:13:24.978Z,68.00
2023-04-19T16:16:31.161Z,68.10
2023-04-19T16:19:33.723Z,68.10
2023-04-19T16:22:36.104Z,68.00
2023-04-19T16:25:38.408Z,68.10
2023-04-19T16:28:45.534Z,68.10
2023-04-19T16:31:49.771Z,68.20
2023-04-19T16:35:00.160Z,68.20
2023-04-19T16:38:04.702Z,68.10
2023-04-19T16:41:07.017Z,68.20
2023-04-19T16:44:09.312Z,68.20
2023-04-19T16:47:11.825Z,68.40
2023-04-19T16:50:14.600Z,68.40
2023-04-19T16:53:17.009Z,68.40
2023-04-19T16:56:19.740Z,68.60
2023-04-19T16:59:22.056Z,68.60
2023-04-19T17:02:24.468Z,68.80
2023-04-19T17:05:26.904Z,68.80
2023-04-19T17:08:29.142Z,68.90
2023-04-19T17:11:32.952Z,69.00
2023-04-19T17:14:36.364Z,69.10
2023-04-19T17:17:38.745Z,69.30
2023-04-19T17:20:41.033Z,69.30
2023-04-19T17:23:45.427Z,70.10
2023-04-19T17:26:47.660Z,70.00
2023-04-19T17:29:50.033Z,70.30
2023-04-19T17:32:52.587Z,70.80
2023-04-19T17:35:54.950Z,71.90
2023-04-19T17:38:57.219Z,71.60
2023-04-19T17:41:59.552Z,71.80
2023-04-19T17:45:01.773Z,72.40
2023-04-19T17:48:04.263Z,72.50
2023-04-19T17:51:07.323Z,72.70
2023-04-19T17:54:09.547Z,72.80
2023-04-19T17:57:11.760Z,73.00
2023-04-19T18:00:15.446Z,73.20
2023-04-19T18:03:17.823Z,73.20
2023-04-19T18:06:21.153Z,73.40
2023-04-19T18:09:23.425Z,73.70
2023-04-19T18:12:25.756Z,73.90
2023-04-19T18:15:28.054Z,74.00
2023-04-19T18:18:30.429Z,74.30
2023-04-19T18:21:33.705Z,74.00
2023-04-19T18:24:36.158Z,74.30
2023-04-19T18:27:38.477Z,74.40
2023-04-19T18:30:41.050Z,74.40
2023-04-19T18:33:43.252Z,74.50
2023-04-19T18:36:45.491Z,74.70
2023-04-19T18:39:47.991Z,74.50
2023-04-19T18:42:50.573Z,74.90
2023-04-19T18:45:56.704Z,74.80
2023-04-19T18:48:59.586Z,75.00
2023-04-19T18:52:02.105Z,75.00
2023-04-19T18:55:06.406Z,75.00
2023-04-19T18:58:09.348Z,74.90
2023-04-19T19:01:12.343Z,75.20
2023-04-19T19:04:42.689Z,75.10
2023-04-19T19:07:44.192Z,75.40
2023-04-19T19:11:16.356Z,75.10
2023-04-19T19:14:10.053Z,75.30
2023-04-19T19:17:12.312Z,75.60
2023-04-19T19:20:14.648Z,75.50
2023-04-19T19:23:18.233Z,75.50
2023-04-19T19:26:21.209Z,75.40
2023-04-19T19:29:23.723Z,75.30
2023-04-19T19:32:26.482Z,75.20
2023-04-19T19:35:28.748Z,75.20
2023-04-19T19:38:31.819Z,75.40
2023-04-19T19:44:41.319Z,75.50
2023-04-19T19:47:46.192Z,75.70
2023-04-19T19:53:57.796Z,75.60
2023-04-19T19:57:56.603Z,75.60
2023-04-19T20:03:37.327Z,75.70
2023-04-19T20:09:46.912Z,76.00
2023-04-19T20:12:49.797Z,76.00
2023-04-19T20:15:53.678Z,76.00
2023-04-19T20:18:59.062Z,76.00
2023-04-19T20:22:02.597Z,76.10
2023-04-19T20:25:06.752Z,76.10
2023-04-19T20:28:11.317Z,76.20
2023-04-19T20:31:15.598Z,76.60
2023-04-19T20:34:19.807Z,76.60
2023-04-19T20:37:23.495Z,76.60
2023-04-19T20:40:26.195Z,76.40
2023-04-19T20:43:29.155Z,76.50
2023-04-19T20:46:35.850Z,76.60
2023-04-19T20:49:38.456Z,76.70
2023-04-19T20:52:41.621Z,76.60
2023-04-19T20:55:44.402Z,76.60
2023-04-19T20:58:46.671Z,76.70
2023-04-19T21:01:49.012Z,76.90
2023-04-19T21:04:51.369Z,77.00
2023-04-19T21:07:54.129Z,77.30
2023-04-19T21:10:56.532Z,78.20
2023-04-19T21:13:58.721Z,77.20
2023-04-19T21:17:02.013Z,77.20
2023-04-19T21:20:12.225Z,78.10
2023-04-19T21:23:16.169Z,77.50
2023-04-19T21:26:18.416Z,77.80
2023-04-19T21:29:21.228Z,77.70
2023-04-19T21:32:23.716Z,77.80
2023-04-19T21:35:26.368Z,77.80
2023-04-19T21:38:31.591Z,78.50
2023-04-19T21:41:33.892Z,77.70
2023-04-19T21:44:36.135Z,77.70
2023-04-19T21:47:38.370Z,77.70
2023-04-19T21:50:41.362Z,77.70
2023-04-19T21:53:43.765Z,78.00
2023-04-19T21:56:46.093Z,77.90
2023-04-19T21:59:48.327Z,78.00
2023-04-19T22:02:50.831Z,78.00
2023-04-19T22:05:53.166Z,78.00
2023-04-19T22:08:56.897Z,77.90
2023-04-19T22:12:01.177Z,77.90
2023-04-19T22:15:03.650Z,77.90
2023-04-19T22:18:06.120Z,77.80
2023-04-19T22:21:10.035Z,78.10
2023-04-19T22:24:12.285Z,78.20
2023-04-19T22:27:14.538Z,78.30
2023-04-19T22:30:17.053Z,78.30
2023-04-19T22:33:19.565Z,78.30
2023-04-19T22:36:21.855Z,78.20
2023-04-19T22:39:24.955Z,78.40
2023-04-19T22:42:27.166Z,78.40
2023-04-19T22:45:29.506Z,78.50
2023-04-19T22:48:31.799Z,78.60
2023-04-19T22:51:34.456Z,78.30
2023-04-19T22:54:36.675Z,78.60
2023-04-19T22:57:39.029Z,78.60
2023-04-19T23:00:41.565Z,78.60
2023-04-19T23:03:43.905Z,78.90
2023-04-19T23:06:48.961Z,78.90
2023-04-19T23:09:51.761Z,79.10
2023-04-19T23:12:54.495Z,79.00
2023-04-19T23:15:56.930Z,79.20
2023-04-19T23:18:59.214Z,79.10
2023-04-19T23:22:01.463Z,79.90
2023-04-19T23:25:04.809Z,79.30
2023-04-19T23:28:07.023Z,79.40
2023-04-19T23:31:09.347Z,80.20
2023-04-19T23:34:11.732Z,79.80
2023-04-19T23:37:14.060Z,79.70
2023-04-19T23:40:16.288Z,79.60
2023-04-19T23:43:18.515Z,79.60
2023-04-19T23:46:21.005Z,79.90
2023-04-19T23:49:23.269Z,80.20
2023-04-19T23:52:25.572Z,80.30
2023-04-19T23:55:27.809Z,80.20
2023-04-19T23:58:30.149Z,80.10
